Time,TemperatureF,DewpointF,PressureIn,WindDirection,WindDirectionDegrees,WindSpeedMPH,WindSpeedGustMPH,Humidity,HourlyPrecipIn,Conditions,Clouds,dailyrainin,SoftwareType,DateUTC
2013-03-17 00:01:00,35.4,32.8,29.98,NW,319,1.0,1.0,90,0.00,,,0.00,Wunderground v.1.15,2013-03-17 04:01:00,
2013-03-17 00:03:00,35.4,32.8,29.98,NW,319,1.0,4.0,90,0.00,,,0.00,Wunderground v.1.15,2013-03-17 04:03:00,
2013-03-17 00:07:00,35.4,32.8,29.98,NW,323,1.0,4.0,90,0.00,,,0.00,Wunderground v.1.15,2013-03-17 04:07:00,
2013-03-17 00:10:00,35.3,32.7,29.98,WNW,303,1.0,4.0,90,0.00,,,0.00,Wunderground v.1.15,2013-03-17 04:10:00,
2013-03-17 00:16:00,35.3,32.7,29.98,WNW,303,1.0,4.0,90,0.00,,,0.00,Wunderground v.1.15,2013-03-17 04:16:00,
2013-03-17 00:21:00,35.2,32.6,29.98,WNW,302,1.0,1.0,90,0.00,,,0.00,Wunderground v.1.15,2013-03-17 04:21:00,
2013-03-17 00:26:00,35.1,32.5,29.98,WNW,302,1.0,4.0,90,0.00,,,0.00,Wunderground v.1.15,2013-03-17 04:26:00,
2013-03-17 00:31:00,35.0,32.4,29.98,WNW,303,1.0,4.0,90,0.00,,,0.00,Wunderground v.1.15,2013-03-17 04:31:00,
2013-03-17 00:37:00,34.8,32.2,29.99,WNW,303,1.0,4.0,90,0.00,,,0.00,Wunderground v.1.15,2013-03-17 04:37:00,
2013-03-17 00:42:00,34.7,32.1,29.99,WNW,292,1.0,4.0,90,0.00,,,0.00,Wunderground v.1.15,2013-03-17 04:42:00,
2013-03-17 00:47:00,34.6,32.0,29.99,WNW,293,1.0,4.0,90,0.00,,,0.00,Wunderground v.1.15,2013-03-17 04:47:00,
2013-03-17 00:53:00,34.4,31.8,29.99,WNW,293,1.0,4.0,90,0.00,,,0.00,Wunderground v.1.15,2013-03-17 04:53:00,
2013-03-17 00:58:00,34.4,31.8,29.99,NW,311,1.0,4.0,90,0.00,,,0.00,Wunderground v.1.15,2013-03-17 04:58:00,
2013-03-17 01:04:00,34.4,31.8,29.99,NW,311,1.0,5.0,90,0.00,,,0.00,Wunderground v.1.15,2013-03-17 05:04:00,
2013-03-17 01:10:00,34.3,31.7,30.00,NW,325,1.0,5.0,90,0.00,,,0.00,Wunderground v.1.15,2013-03-17 05:10:00,
2013-03-17 01:15:00,34.1,31.2,29.99,North,360,2.0,5.0,89,0.00,,,0.00,Wunderground v.1.15,2013-03-17 05:15:00,
2013-03-17 01:21:00,33.8,30.9,30.00,NNW,331,3.0,5.0,89,0.00,,,0.00,Wunderground v.1.15,2013-03-17 05:21:00,
2013-03-17 01:26:00,33.7,30.8,30.00,NW,325,3.0,5.0,89,0.00,,,0.00,Wunderground v.1.15,2013-03-17 05:26:00,
2013-03-17 01:32:00,33.7,30.8,30.00,NNW,327,2.0,5.0,89,0.00,,,0.00,Wunderground v.1.15,2013-03-17 05:32:00,
2013-03-17 01:38:00,33.7,30.8,30.00,NNW,327,2.0,5.0,89,0.00,,,0.00,Wunderground v.1.15,2013-03-17 05:38:00,
2013-03-17 01:43:00,33.7,30.8,30.00,NNW,336,2.0,5.0,89,0.00,,,0.00,Wunderground v.1.15,2013-03-17 05:43:00,
2013-03-17 01:49:00,33.7,31.1,30.00,NNW,336,2.0,5.0,90,0.00,,,0.00,Wunderground v.1.15,2013-03-17 05:49:00,
2013-03-17 01:54:00,33.7,31.1,30.00,NNW,336,2.0,5.0,90,0.00,,,0.00,Wunderground v.1.15,2013-03-17 05:54:00,
2013-03-17 01:59:00,33.7,31.1,30.01,NW,317,1.0,5.0,90,0.00,,,0.00,Wunderground v.1.15,2013-03-17 05:59:00,
2013-03-17 02:04:00,33.7,31.1,30.01,NW,317,1.0,7.0,90,0.00,,,0.00,Wunderground v.1.15,2013-03-17 06:04:00,
2013-03-17 02:10:00,33.7,31.1,30.01,West,280,1.0,7.0,90,0.00,,,0.00,Wunderground v.1.15,2013-03-17 06:10:00,
2013-03-17 02:16:00,33.7,31.1,30.01,West,280,1.0,7.0,90,0.00,,,0.00,Wunderground v.1.15,2013-03-17 06:16:00,
2013-03-17 02:21:00,33.6,31.0,30.01,WNW,284,1.0,7.0,90,0.00,,,0.00,Wunderground v.1.15,2013-03-17 06:21:00,
2013-03-17 02:26:00,33.6,31.0,30.01,WNW,303,1.0,7.0,90,0.00,,,0.00,Wunderground v.1.15,2013-03-17 06:26:00,
2013-03-17 02:32:00,33.5,30.6,30.01,WNW,303,1.0,7.0,89,0.00,,,0.00,Wunderground v.1.15,2013-03-17 06:32:00,
2013-03-17 02:37:00,33.4,30.5,30.02,NW,321,1.0,7.0,89,0.00,,,0.00,Wunderground v.1.15,2013-03-17 06:37:00,
2013-03-17 02:43:00,33.3,30.4,30.02,NW,317,2.0,7.0,89,0.00,,,0.00,Wunderground v.1.15,2013-03-17 06:43:00,
2013-03-17 02:48:00,33.2,30.3,30.02,NNW,331,3.0,7.0,89,0.00,,,0.00,Wunderground v.1.15,2013-03-17 06:48:00,
2013-03-17 02:53:00,33.0,30.1,30.02,NW,322,3.0,7.0,89,0.00,,,0.00,Wunderground v.1.15,2013-03-17 06:53:00,
2013-03-17 02:58:00,32.9,30.0,30.02,NW,324,3.0,7.0,89,0.00,,,0.00,Wunderground v.1.15,2013-03-17 06:58:00,
2013-03-17 03:04:00,32.7,29.8,30.02,North,351,3.0,5.0,89,0.00,,,0.00,Wunderground v.1.15,2013-03-17 07:04:00,
2013-03-17 03:09:00,32.6,29.7,30.02,NW,309,3.0,6.0,89,0.00,,,0.00,Wunderground v.1.15,2013-03-17 07:09:00,
2013-03-17 03:14:00,32.5,29.6,30.03,NW,322,3.0,4.0,89,0.00,,,0.00,Wunderground v.1.15,2013-03-17 07:14:00,
2013-03-17 03:19:00,32.4,29.5,30.03,NW,321,3.0,4.0,89,0.00,,,0.00,Wunderground v.1.15,2013-03-17 07:19:00,
2013-03-17 03:25:00,32.3,29.4,30.03,NNW,336,2.0,7.0,89,0.00,,,0.00,Wunderground v.1.15,2013-03-17 07:25:00,
2013-03-17 03:30:00,32.2,29.3,30.03,NW,311,3.0,3.0,89,0.00,,,0.00,Wunderground v.1.15,2013-03-17 07:30:00,
2013-03-17 03:36:00,32.2,29.3,30.03,NW,309,2.0,3.0,89,0.00,,,0.00,Wunderground v.1.15,2013-03-17 07:36:00,
2013-03-17 03:41:00,32.1,29.2,30.04,NNW,336,2.0,3.0,89,0.00,,,0.00,Wunderground v.1.15,2013-03-17 07:41:00,
2013-03-17 03:46:00,32.1,29.5,30.04,NNW,336,1.0,3.0,90,0.00,,,0.00,Wunderground v.1.15,2013-03-17 07:46:00,
2013-03-17 03:51:00,32.0,29.4,30.04,NNW,336,1.0,3.0,90,0.00,,,0.00,Wunderground v.1.15,2013-03-17 07:51:00,
2013-03-17 03:56:00,32.0,29.4,30.03,NW,319,2.0,5.0,90,0.00,,,0.00,Wunderground v.1.15,2013-03-17 07:56:00,
2013-03-17 04:02:00,31.9,29.0,30.03,NW,322,3.0,7.0,89,0.00,,,0.00,Wunderground v.1.15,2013-03-17 08:02:00,
2013-03-17 04:07:00,31.7,28.8,30.03,WNW,294,3.0,7.0,89,0.00,,,0.00,Wunderground v.1.15,2013-03-17 08:07:00,
2013-03-17 04:13:00,31.5,28.6,30.03,WNW,287,3.0,7.0,89,0.00,,,0.00,Wunderground v.1.15,2013-03-17 08:13:00,
2013-03-17 04:18:00,31.4,28.5,30.03,NW,319,3.0,7.0,89,0.00,,,0.00,Wunderground v.1.15,2013-03-17 08:18:00,
2013-03-17 04:23:00,31.1,28.2,30.03,NNW,336,4.0,7.0,89,0.00,,,0.00,Wunderground v.1.15,2013-03-17 08:23:00,
2013-03-17 04:29:00,30.9,28.0,30.04,NW,316,4.0,7.0,89,0.00,,,0.00,Wunderground v.1.15,2013-03-17 08:29:00,
2013-03-17 04:34:00,30.8,28.2,30.04,NW,326,3.0,7.0,90,0.00,,,0.00,Wunderground v.1.15,2013-03-17 08:34:00,
2013-03-17 04:40:00,30.8,28.2,30.04,NNW,338,3.0,3.0,90,0.00,,,0.00,Wunderground v.1.15,2013-03-17 08:40:00,
2013-03-17 04:45:00,30.7,28.1,30.04,NW,319,3.0,7.0,90,0.00,,,0.00,Wunderground v.1.15,2013-03-17 08:45:00,
2013-03-17 04:50:00,30.6,28.0,30.05,NNW,338,3.0,3.0,90,0.00,,,0.00,Wunderground v.1.15,2013-03-17 08:50:00,
2013-03-17 04:56:00,30.7,28.1,30.05,NNW,329,3.0,7.0,90,0.00,,,0.00,Wunderground v.1.15,2013-03-17 08:56:00,
2013-03-17 05:01:00,30.6,28.0,30.05,NW,317,3.0,8.0,90,0.00,,,0.00,Wunderground v.1.15,2013-03-17 09:01:00,
2013-03-17 05:07:00,30.7,28.1,30.05,NW,304,2.0,8.0,90,0.00,,,0.00,Wunderground v.1.15,2013-03-17 09:07:00,
2013-03-17 05:13:00,30.6,28.0,30.05,NW,326,2.0,8.0,90,0.00,,,0.00,Wunderground v.1.15,2013-03-17 09:13:00,
2013-03-17 05:18:00,30.6,28.0,30.06,West,278,2.0,8.0,90,0.00,,,0.00,Wunderground v.1.15,2013-03-17 09:18:00,
2013-03-17 05:24:00,30.5,27.9,30.06,NW,319,2.0,8.0,90,0.00,,,0.00,Wunderground v.1.15,2013-03-17 09:24:00,
2013-03-17 05:29:00,30.5,27.9,30.06,NNW,329,2.0,8.0,90,0.00,,,0.00,Wunderground v.1.15,2013-03-17 09:29:00,
2013-03-17 05:34:00,30.5,27.9,30.07,NNW,329,2.0,8.0,90,0.00,,,0.00,Wunderground v.1.15,2013-03-17 09:34:00,
2013-03-17 05:39:00,30.5,27.9,30.06,NNW,327,2.0,8.0,90,0.00,,,0.00,Wunderground v.1.15,2013-03-17 09:39:00,
2013-03-17 05:45:00,30.4,27.8,30.07,NNW,328,2.0,8.0,90,0.00,,,0.00,Wunderground v.1.15,2013-03-17 09:45:00,
2013-03-17 05:50:00,30.4,27.8,30.07,NNW,329,2.0,8.0,90,0.00,,,0.00,Wunderground v.1.15,2013-03-17 09:50:00,
2013-03-17 05:55:00,30.4,27.8,30.07,NNW,329,2.0,8.0,90,0.00,,,0.00,Wunderground v.1.15,2013-03-17 09:55:00,
2013-03-17 06:00:00,30.3,27.7,30.07,NNW,331,3.0,6.0,90,0.00,,,0.00,Wunderground v.1.15,2013-03-17 10:00:00,
2013-03-17 06:06:00,30.2,27.6,30.07,NNW,339,4.0,6.0,90,0.00,,,0.00,Wunderground v.1.15,2013-03-17 10:06:00,
2013-03-17 06:11:00,30.2,27.6,30.07,NNW,327,3.0,6.0,90,0.00,,,0.00,Wunderground v.1.15,2013-03-17 10:11:00,
2013-03-17 06:17:00,30.2,27.6,30.08,NNW,327,2.0,6.0,90,0.00,,,0.00,Wunderground v.1.15,2013-03-17 10:17:00,
2013-03-17 06:22:00,30.2,27.6,30.09,NNW,333,1.0,6.0,90,0.00,,,0.00,Wunderground v.1.15,2013-03-17 10:22:00,
2013-03-17 06:27:00,30.2,27.6,30.09,NNW,329,1.0,6.0,90,0.00,,,0.00,Wunderground v.1.15,2013-03-17 10:27:00,
2013-03-17 06:32:00,30.2,27.6,30.09,NW,312,2.0,6.0,90,0.00,,,0.00,Wunderground v.1.15,2013-03-17 10:32:00,
2013-03-17 06:37:00,30.2,27.6,30.10,NW,315,2.0,6.0,90,0.00,,,0.00,Wunderground v.1.15,2013-03-17 10:37:00,
2013-03-17 06:42:00,30.2,27.6,30.10,NNW,338,3.0,6.0,90,0.00,,,0.00,Wunderground v.1.15,2013-03-17 10:42:00,
2013-03-17 06:47:00,30.2,27.6,30.10,NNW,337,2.0,6.0,90,0.00,,,0.00,Wunderground v.1.15,2013-03-17 10:47:00,
2013-03-17 06:53:00,30.2,27.3,30.10,North,5,1.0,6.0,89,0.00,,,0.00,Wunderground v.1.15,2013-03-17 10:53:00,
2013-03-17 06:59:00,30.1,27.3,30.11,WNW,288,3.0,6.0,89,0.00,,,0.00,Wunderground v.1.15,2013-03-17 10:59:00,
2013-03-17 07:05:00,30.0,26.9,30.11,NW,325,4.0,7.0,88,0.00,,,0.00,Wunderground v.1.15,2013-03-17 11:05:00,
2013-03-17 07:11:00,29.9,26.2,30.12,NW,319,3.0,3.0,86,0.00,,,0.00,Wunderground v.1.15,2013-03-17 11:11:00,
2013-03-17 07:16:00,29.8,26.1,30.11,NW,323,3.0,7.0,86,0.00,,,0.00,Wunderground v.1.15,2013-03-17 11:16:00,
2013-03-17 07:22:00,29.8,25.8,30.12,NW,322,2.0,7.0,85,0.00,,,0.00,Wunderground v.1.15,2013-03-17 11:22:00,
2013-03-17 07:27:00,29.7,25.5,30.12,NNW,331,3.0,7.0,84,0.00,,,0.00,Wunderground v.1.15,2013-03-17 11:27:00,
2013-03-17 07:33:00,29.6,25.4,30.12,WNW,298,3.0,7.0,84,0.00,,,0.00,Wunderground v.1.15,2013-03-17 11:33:00,
2013-03-17 07:38:00,29.6,25.4,30.13,NW,321,3.0,7.0,84,0.00,,,0.00,Wunderground v.1.15,2013-03-17 11:38:00,
2013-03-17 07:44:00,29.6,25.6,30.13,East,97,2.0,7.0,85,0.00,,,0.00,Wunderground v.1.15,2013-03-17 11:44:00,
2013-03-17 07:49:00,29.6,25.4,30.13,NW,311,1.0,7.0,84,0.00,,,0.00,Wunderground v.1.15,2013-03-17 11:49:00,
2013-03-17 07:54:00,29.6,25.6,30.14,NW,311,2.0,7.0,85,0.00,,,0.00,Wunderground v.1.15,2013-03-17 11:54:00,
2013-03-17 08:01:00,29.6,25.6,30.15,NW,312,0.0,7.0,85,0.00,,,0.00,Wunderground v.1.15,2013-03-17 12:01:00,
2013-03-17 08:06:00,29.6,25.4,30.15,WNW,301,0.0,7.0,84,0.00,,,0.00,Wunderground v.1.15,2013-03-17 12:06:00,
2013-03-17 08:12:00,29.7,25.5,30.15,WNW,300,0.0,7.0,84,0.00,,,0.00,Wunderground v.1.15,2013-03-17 12:12:00,
2013-03-17 08:17:00,29.7,25.2,30.15,East,90,0.0,7.0,83,0.00,,,0.00,Wunderground v.1.15,2013-03-17 12:17:00,
2013-03-17 08:22:00,29.7,25.5,30.16,East,90,0.0,7.0,84,0.00,,,0.00,Wunderground v.1.15,2013-03-17 12:22:00,
2013-03-17 08:27:00,29.7,25.2,30.16,East,90,0.0,7.0,83,0.00,,,0.00,Wunderground v.1.15,2013-03-17 12:27:00,
2013-03-17 08:32:00,29.7,25.2,30.17,East,90,0.0,7.0,83,0.00,,,0.00,Wunderground v.1.15,2013-03-17 12:32:00,
2013-03-17 08:38:00,29.7,25.2,30.16,East,90,0.0,7.0,83,0.00,,,0.00,Wunderground v.1.15,2013-03-17 12:38:00,
2013-03-17 08:43:00,29.8,25.3,30.16,East,90,0.0,7.0,83,0.00,,,0.00,Wunderground v.1.15,2013-03-17 12:43:00,
2013-03-17 08:48:00,29.9,25.4,30.16,East,90,0.0,7.0,83,0.00,,,0.00,Wunderground v.1.15,2013-03-17 12:48:00,
2013-03-17 08:54:00,30.0,25.5,30.17,East,90,0.0,7.0,83,0.00,,,0.00,Wunderground v.1.15,2013-03-17 12:54:00,
2013-03-17 08:59:00,30.1,25.3,30.17,East,90,0.0,7.0,82,0.00,,,0.00,Wunderground v.1.15,2013-03-17 12:59:00,
2013-03-17 09:05:00,30.2,25.7,30.17,East,90,0.0,3.0,83,0.00,,,0.00,Wunderground v.1.15,2013-03-17 13:05:00,
2013-03-17 09:10:00,30.3,25.5,30.17,NW,325,1.0,3.0,82,0.00,,,0.00,Wunderground v.1.15,2013-03-17 13:10:00,
2013-03-17 09:16:00,30.4,25.6,30.17,NW,324,1.0,3.0,82,0.00,,,0.00,Wunderground v.1.15,2013-03-17 13:16:00,
2013-03-17 09:21:00,30.5,25.7,30.17,NW,323,1.0,3.0,82,0.00,,,0.00,Wunderground v.1.15,2013-03-17 13:21:00,
2013-03-17 09:26:00,30.6,25.8,30.17,ENE,77,1.0,3.0,82,0.00,,,0.00,Wunderground v.1.15,2013-03-17 13:26:00,
2013-03-17 09:32:00,30.7,25.9,30.17,ENE,78,1.0,3.0,82,0.00,,,0.00,Wunderground v.1.15,2013-03-17 13:32:00,
2013-03-17 09:37:00,30.8,26.0,30.17,SE,126,1.0,4.0,82,0.00,,,0.00,Wunderground v.1.15,2013-03-17 13:37:00,
2013-03-17 09:42:00,31.0,26.1,30.18,ESE,118,1.0,3.0,82,0.00,,,0.00,Wunderground v.1.15,2013-03-17 13:42:00,
2013-03-17 09:48:00,31.2,26.3,30.18,ESE,119,1.0,3.0,82,0.00,,,0.00,Wunderground v.1.15,2013-03-17 13:48:00,
2013-03-17 09:54:00,31.4,25.9,30.18,NNW,340,1.0,4.0,80,0.00,,,0.00,Wunderground v.1.15,2013-03-17 13:54:00,
2013-03-17 09:59:00,31.5,25.7,30.18,NNW,339,2.0,4.0,79,0.00,,,0.00,Wunderground v.1.15,2013-03-17 13:59:00,
2013-03-17 10:05:00,31.6,26.1,30.19,NNW,338,1.0,4.0,80,0.00,,,0.00,Wunderground v.1.15,2013-03-17 14:05:00,
2013-03-17 10:11:00,31.8,25.7,30.19,North,360,1.0,4.0,78,0.00,,,0.00,Wunderground v.1.15,2013-03-17 14:11:00,
2013-03-17 10:17:00,31.9,25.8,30.19,East,80,1.0,4.0,78,0.00,,,0.00,Wunderground v.1.15,2013-03-17 14:17:00,
2013-03-17 10:22:00,32.1,26.0,30.19,SE,137,1.0,4.0,78,0.00,,,0.00,Wunderground v.1.15,2013-03-17 14:22:00,
2013-03-17 10:27:00,32.3,25.9,30.19,NW,318,1.0,4.0,77,0.00,,,0.00,Wunderground v.1.15,2013-03-17 14:27:00,
2013-03-17 10:32:00,32.3,25.6,30.19,NW,317,2.0,4.0,76,0.00,,,0.00,Wunderground v.1.15,2013-03-17 14:32:00,
2013-03-17 10:38:00,32.4,25.7,30.19,East,96,1.0,5.0,76,0.00,,,0.00,Wunderground v.1.15,2013-03-17 14:38:00,
2013-03-17 10:43:00,32.4,25.7,30.19,SSE,161,1.0,4.0,76,0.00,,,0.00,Wunderground v.1.15,2013-03-17 14:43:00,
2013-03-17 10:48:00,32.5,25.8,30.20,WNW,303,2.0,4.0,76,0.00,,,0.00,Wunderground v.1.15,2013-03-17 14:48:00,
2013-03-17 10:53:00,32.6,25.9,30.20,NNW,344,3.0,4.0,76,0.00,,,0.00,Wunderground v.1.15,2013-03-17 14:53:00,
2013-03-17 10:59:00,32.7,26.0,30.20,NNW,341,2.0,4.0,76,0.00,,,0.00,Wunderground v.1.15,2013-03-17 14:59:00,
2013-03-17 11:04:00,32.8,26.1,30.21,North,5,1.0,5.0,76,0.00,,,0.00,Wunderground v.1.15,2013-03-17 15:04:00,
2013-03-17 11:10:00,32.9,26.2,30.20,North,349,2.0,5.0,76,0.00,,,0.00,Wunderground v.1.15,2013-03-17 15:10:00,
2013-03-17 11:16:00,33.1,26.4,30.20,North,355,1.0,5.0,76,0.00,,,0.00,Wunderground v.1.15,2013-03-17 15:16:00,
2013-03-17 11:22:00,33.3,25.9,30.20,NNW,337,2.0,6.0,74,0.00,,,0.00,Wunderground v.1.15,2013-03-17 15:22:00,
2013-03-17 11:28:00,33.3,25.9,30.20,North,355,3.0,6.0,74,0.00,,,0.00,Wunderground v.1.15,2013-03-17 15:28:00,
2013-03-17 11:34:00,33.5,26.4,30.20,NNW,348,2.0,5.0,75,0.00,,,0.00,Wunderground v.1.15,2013-03-17 15:34:00,
2013-03-17 11:40:00,34.1,26.7,30.19,NW,324,2.0,5.0,74,0.00,,,0.00,Wunderground v.1.15,2013-03-17 15:40:00,
2013-03-17 11:46:00,34.2,26.4,30.19,WNW,286,2.0,5.0,73,0.00,,,0.00,Wunderground v.1.15,2013-03-17 15:46:00,
2013-03-17 11:52:00,34.4,26.6,30.19,NE,56,2.0,5.0,73,0.00,,,0.00,Wunderground v.1.15,2013-03-17 15:52:00,
2013-03-17 11:57:00,34.7,26.6,30.19,North,5,3.0,7.0,72,0.00,,,0.00,Wunderground v.1.15,2013-03-17 15:57:00,
2013-03-17 12:03:00,34.4,26.3,30.19,NW,307,4.0,7.0,72,0.00,,,0.00,Wunderground v.1.15,2013-03-17 16:03:00,
2013-03-17 12:09:00,35.0,26.5,30.19,NE,51,2.0,7.0,71,0.00,,,0.00,Wunderground v.1.15,2013-03-17 16:09:00,
2013-03-17 12:14:00,35.2,26.7,30.19,NNW,342,2.0,7.0,71,0.00,,,0.00,Wunderground v.1.15,2013-03-17 16:14:00,
2013-03-17 12:20:00,34.9,26.1,30.19,NNW,339,3.0,3.0,70,0.00,,,0.00,Wunderground v.1.15,2013-03-17 16:20:00,
2013-03-17 12:25:00,34.8,26.4,30.19,NW,323,3.0,7.0,71,0.00,,,0.00,Wunderground v.1.15,2013-03-17 16:25:00,
2013-03-17 12:30:00,35.1,26.6,30.19,WNW,303,2.0,7.0,71,0.00,,,0.00,Wunderground v.1.15,2013-03-17 16:30:00,
2013-03-17 12:35:00,35.4,26.2,30.19,East,90,1.0,7.0,69,0.00,,,0.00,Wunderground v.1.15,2013-03-17 16:35:00,
2013-03-17 12:40:00,35.8,27.0,30.19,NW,311,2.0,7.0,70,0.00,,,0.00,Wunderground v.1.15,2013-03-17 16:40:00,
2013-03-17 12:45:00,35.7,26.5,30.19,WNW,296,2.0,9.0,69,0.00,,,0.00,Wunderground v.1.15,2013-03-17 16:45:00,
2013-03-17 12:50:00,35.4,26.6,30.19,NE,54,4.0,4.0,70,0.00,,,0.00,Wunderground v.1.15,2013-03-17 16:50:00,
2013-03-17 12:55:00,35.9,27.1,30.19,WNW,303,5.0,7.0,70,0.00,,,0.00,Wunderground v.1.15,2013-03-17 16:55:00,
2013-03-17 13:00:00,35.9,27.1,30.19,NW,317,3.0,7.0,70,0.00,,,0.00,Wunderground v.1.15,2013-03-17 17:00:00,
2013-03-17 13:06:00,35.7,26.5,30.19,NNW,329,3.0,7.0,69,0.00,,,0.00,Wunderground v.1.15,2013-03-17 17:06:00,
2013-03-17 13:12:00,35.6,27.1,30.19,North,360,3.0,7.0,71,0.00,,,0.00,Wunderground v.1.15,2013-03-17 17:12:00,
2013-03-17 13:17:00,35.8,26.6,30.19,NW,321,3.0,7.0,69,0.00,,,0.00,Wunderground v.1.15,2013-03-17 17:17:00,
2013-03-17 13:23:00,35.9,27.1,30.19,NW,318,3.0,7.0,70,0.00,,,0.00,Wunderground v.1.15,2013-03-17 17:23:00,
2013-03-17 13:28:00,36.1,26.9,30.19,ENE,63,3.0,7.0,69,0.00,,,0.00,Wunderground v.1.15,2013-03-17 17:28:00,
2013-03-17 13:34:00,36.1,27.3,30.19,NNW,338,3.0,7.0,70,0.00,,,0.00,Wunderground v.1.15,2013-03-17 17:34:00,
2013-03-17 13:39:00,36.4,27.5,30.19,NNW,329,2.0,7.0,70,0.00,,,0.00,Wunderground v.1.15,2013-03-17 17:39:00,
2013-03-17 13:44:00,36.5,27.3,30.18,ENE,60,2.0,7.0,69,0.00,,,0.00,Wunderground v.1.15,2013-03-17 17:44:00,
2013-03-17 13:49:00,36.1,26.2,30.18,NNW,340,2.0,7.0,67,0.00,,,0.00,Wunderground v.1.15,2013-03-17 17:49:00,
2013-03-17 13:55:00,35.8,26.3,30.18,North,5,4.0,8.0,68,0.00,,,0.00,Wunderground v.1.15,2013-03-17 17:55:00,
2013-03-17 14:00:00,35.7,26.5,30.18,SSW,206,4.0,4.0,69,0.00,,,0.00,Wunderground v.1.15,2013-03-17 18:00:00,
2013-03-17 14:06:00,35.9,26.0,30.18,SE,133,3.0,9.0,67,0.00,,,0.00,Wunderground v.1.15,2013-03-17 18:06:00,
2013-03-17 14:11:00,35.9,26.7,30.18,NNW,342,4.0,9.0,69,0.00,,,0.00,Wunderground v.1.15,2013-03-17 18:11:00,
2013-03-17 14:16:00,36.1,26.9,30.18,NW,317,4.0,9.0,69,0.00,,,0.00,Wunderground v.1.15,2013-03-17 18:16:00,
2013-03-17 14:22:00,35.9,26.4,30.18,NW,313,4.0,9.0,68,0.00,,,0.00,Wunderground v.1.15,2013-03-17 18:22:00,
2013-03-17 14:27:00,36.0,26.5,30.18,NNW,328,4.0,9.0,68,0.00,,,0.00,Wunderground v.1.15,2013-03-17 18:27:00,
2013-03-17 14:33:00,36.1,26.6,30.18,North,5,3.0,9.0,68,0.00,,,0.00,Wunderground v.1.15,2013-03-17 18:33:00,
2013-03-17 14:39:00,35.9,26.4,30.18,West,272,3.0,9.0,68,0.00,,,0.00,Wunderground v.1.15,2013-03-17 18:39:00,
2013-03-17 14:44:00,36.0,26.5,30.18,North,350,2.0,9.0,68,0.00,,,0.00,Wunderground v.1.15,2013-03-17 18:44:00,
2013-03-17 14:50:00,35.9,26.7,30.18,North,11,3.0,3.0,69,0.00,,,0.00,Wunderground v.1.15,2013-03-17 18:50:00,
2013-03-17 14:55:00,36.1,26.9,30.18,SE,125,2.0,9.0,69,0.00,,,0.00,Wunderground v.1.15,2013-03-17 18:55:00,
2013-03-17 15:00:00,36.1,26.9,30.18,NE,44,2.0,8.0,69,0.00,,,0.00,Wunderground v.1.15,2013-03-17 19:00:00,
2013-03-17 15:06:00,36.3,27.1,30.18,NW,313,3.0,8.0,69,0.00,,,0.00,Wunderground v.1.15,2013-03-17 19:06:00,
2013-03-17 15:11:00,36.4,26.8,30.18,NE,34,2.0,8.0,68,0.00,,,0.00,Wunderground v.1.15,2013-03-17 19:11:00,
2013-03-17 15:17:00,36.2,26.6,30.18,NE,40,3.0,8.0,68,0.00,,,0.00,Wunderground v.1.15,2013-03-17 19:17:00,
2013-03-17 15:22:00,36.2,26.6,30.17,NNW,344,3.0,8.0,68,0.00,,,0.00,Wunderground v.1.15,2013-03-17 19:22:00,
2013-03-17 15:28:00,36.3,27.1,30.18,NW,321,3.0,8.0,69,0.00,,,0.00,Wunderground v.1.15,2013-03-17 19:28:00,
2013-03-17 15:33:00,36.4,26.8,30.18,NNW,332,4.0,8.0,68,0.00,,,0.00,Wunderground v.1.15,2013-03-17 19:33:00,
2013-03-17 15:39:00,36.4,26.8,30.18,NW,319,4.0,8.0,68,0.00,,,0.00,Wunderground v.1.15,2013-03-17 19:39:00,
2013-03-17 15:45:00,36.6,27.0,30.18,WNW,303,3.0,8.0,68,0.00,,,0.00,Wunderground v.1.15,2013-03-17 19:45:00,
2013-03-17 15:50:00,36.6,27.0,30.18,NNW,338,3.0,3.0,68,0.00,,,0.00,Wunderground v.1.15,2013-03-17 19:50:00,
2013-03-17 15:55:00,36.5,26.9,30.18,North,5,2.0,8.0,68,0.00,,,0.00,Wunderground v.1.15,2013-03-17 19:55:00,
2013-03-17 16:01:00,36.4,26.8,30.18,SSW,202,2.0,2.0,68,0.00,,,0.00,Wunderground v.1.15,2013-03-17 20:01:00,
2013-03-17 16:06:00,36.5,26.9,30.18,North,5,2.0,9.0,68,0.00,,,0.00,Wunderground v.1.15,2013-03-17 20:06:00,
2013-03-17 16:11:00,36.6,27.0,30.18,NW,322,3.0,9.0,68,0.00,,,0.00,Wunderground v.1.15,2013-03-17 20:11:00,
2013-03-17 16:17:00,36.8,27.2,30.17,NNW,334,3.0,9.0,68,0.00,,,0.00,Wunderground v.1.15,2013-03-17 20:17:00,
2013-03-17 16:22:00,36.6,26.7,30.17,North,355,3.0,9.0,67,0.00,,,0.00,Wunderground v.1.15,2013-03-17 20:22:00,
2013-03-17 16:27:00,36.6,26.7,30.17,West,273,3.0,9.0,67,0.00,,,0.00,Wunderground v.1.15,2013-03-17 20:27:00,
2013-03-17 16:32:00,36.7,27.1,30.17,WNW,303,3.0,9.0,68,0.00,,,0.00,Wunderground v.1.15,2013-03-17 20:32:00,
2013-03-17 16:37:00,36.8,26.9,30.18,NW,312,4.0,9.0,67,0.00,,,0.00,Wunderground v.1.15,2013-03-17 20:37:00,
2013-03-17 16:42:00,36.7,28.2,30.18,North,5,4.0,9.0,71,0.00,,,0.00,Wunderground v.1.15,2013-03-17 20:42:00,
2013-03-17 16:48:00,36.8,26.9,30.18,North,5,3.0,9.0,67,0.00,,,0.00,Wunderground v.1.15,2013-03-17 20:48:00,
2013-03-17 16:53:00,36.7,26.8,30.18,NW,311,2.0,9.0,67,0.00,,,0.00,Wunderground v.1.15,2013-03-17 20:53:00,
2013-03-17 16:59:00,36.7,26.8,30.18,NW,309,3.0,9.0,67,0.00,,,0.00,Wunderground v.1.15,2013-03-17 20:59:00,
2013-03-17 17:05:00,36.6,26.7,30.18,North,5,4.0,9.0,67,0.00,,,0.00,Wunderground v.1.15,2013-03-17 21:05:00,
2013-03-17 17:10:00,36.6,26.3,30.18,NNW,346,3.0,3.0,66,0.00,,,0.00,Wunderground v.1.15,2013-03-17 21:10:00,
2013-03-17 17:15:00,36.5,26.2,30.18,SE,132,2.0,9.0,66,0.00,,,0.00,Wunderground v.1.15,2013-03-17 21:15:00,
2013-03-17 17:20:00,36.5,26.2,30.18,SE,136,2.0,2.0,66,0.00,,,0.00,Wunderground v.1.15,2013-03-17 21:20:00,
2013-03-17 17:25:00,36.6,26.7,30.18,ESE,120,1.0,9.0,67,0.00,,,0.00,Wunderground v.1.15,2013-03-17 21:25:00,
2013-03-17 17:30:00,36.6,26.3,30.18,NW,323,1.0,1.0,66,0.00,,,0.00,Wunderground v.1.15,2013-03-17 21:30:00,
2013-03-17 17:36:00,36.6,26.3,30.18,ENE,63,2.0,9.0,66,0.00,,,0.00,Wunderground v.1.15,2013-03-17 21:36:00,
2013-03-17 17:42:00,36.6,26.7,30.18,North,350,2.0,9.0,67,0.00,,,0.00,Wunderground v.1.15,2013-03-17 21:42:00,
2013-03-17 17:47:00,36.6,26.3,30.18,NW,323,2.0,9.0,66,0.00,,,0.00,Wunderground v.1.15,2013-03-17 21:47:00,
2013-03-17 17:52:00,36.7,26.8,30.18,WNW,296,1.0,9.0,67,0.00,,,0.00,Wunderground v.1.15,2013-03-17 21:52:00,
2013-03-17 17:58:00,36.8,26.9,30.18,NW,304,1.0,9.0,67,0.00,,,0.00,Wunderground v.1.15,2013-03-17 21:58:00,
2013-03-17 18:03:00,36.9,26.6,30.18,SE,125,0.0,8.0,66,0.00,,,0.00,Wunderground v.1.15,2013-03-17 22:03:00,
2013-03-17 18:09:00,36.9,26.6,30.18,SE,142,1.0,8.0,66,0.00,,,0.00,Wunderground v.1.15,2013-03-17 22:09:00,
2013-03-17 18:14:00,36.9,27.0,30.19,SE,143,1.0,8.0,67,0.00,,,0.00,Wunderground v.1.15,2013-03-17 22:14:00,
2013-03-17 18:19:00,36.9,26.6,30.19,North,11,0.0,8.0,66,0.00,,,0.00,Wunderground v.1.15,2013-03-17 22:19:00,
2013-03-17 18:24:00,36.8,26.1,30.19,ENE,61,1.0,8.0,65,0.00,,,0.00,Wunderground v.1.15,2013-03-17 22:24:00,
2013-03-17 18:29:00,36.8,26.5,30.19,NE,53,1.0,8.0,66,0.00,,,0.00,Wunderground v.1.15,2013-03-17 22:29:00,
2013-03-17 18:35:00,36.7,26.0,30.19,ESE,114,1.0,8.0,65,0.00,,,0.00,Wunderground v.1.15,2013-03-17 22:35:00,
2013-03-17 18:41:00,36.6,25.9,30.19,ESE,113,1.0,8.0,65,0.00,,,0.00,Wunderground v.1.15,2013-03-17 22:41:00,
2013-03-17 18:46:00,36.6,26.7,30.19,ESE,123,0.0,8.0,67,0.00,,,0.00,Wunderground v.1.15,2013-03-17 22:46:00,
2013-03-17 18:51:00,36.5,26.2,30.19,ESE,122,0.0,8.0,66,0.00,,,0.00,Wunderground v.1.15,2013-03-17 22:51:00,
2013-03-17 18:57:00,36.4,26.1,30.19,ESE,121,0.0,8.0,66,0.00,,,0.00,Wunderground v.1.15,2013-03-17 22:57:00,
2013-03-17 19:02:00,36.4,26.1,30.19,ESE,121,0.0,5.0,66,0.00,,,0.00,Wunderground v.1.15,2013-03-17 23:02:00,
2013-03-17 19:07:00,36.3,26.0,30.19,East,87,1.0,5.0,66,0.00,,,0.00,Wunderground v.1.15,2013-03-17 23:07:00,
2013-03-17 19:13:00,36.1,25.8,30.19,East,96,1.0,5.0,66,0.00,,,0.00,Wunderground v.1.15,2013-03-17 23:13:00,
2013-03-17 19:18:00,36.1,25.8,30.19,SSE,165,1.0,5.0,66,0.00,,,0.00,Wunderground v.1.15,2013-03-17 23:18:00,
2013-03-17 19:24:00,36.0,26.1,30.19,SSW,200,0.0,5.0,67,0.00,,,0.00,Wunderground v.1.15,2013-03-17 23:24:00,
2013-03-17 19:29:00,35.9,26.0,30.19,ENE,77,1.0,5.0,67,0.00,,,0.00,Wunderground v.1.15,2013-03-17 23:29:00,
2013-03-17 19:34:00,35.8,25.9,30.19,NNW,348,1.0,5.0,67,0.00,,,0.00,Wunderground v.1.15,2013-03-17 23:34:00,
2013-03-17 19:39:00,35.6,25.7,30.19,NE,45,1.0,5.0,67,0.00,,,0.00,Wunderground v.1.15,2013-03-17 23:39:00,
2013-03-17 19:45:00,35.6,26.1,30.19,NNW,335,1.0,5.0,68,0.00,,,0.00,Wunderground v.1.15,2013-03-17 23:45:00,
2013-03-17 19:51:00,35.5,26.0,30.19,NNW,335,0.0,5.0,68,0.00,,,0.00,Wunderground v.1.15,2013-03-17 23:51:00,
2013-03-17 19:56:00,35.4,25.9,30.19,NNW,335,0.0,5.0,68,0.00,,,0.00,Wunderground v.1.15,2013-03-17 23:56:00,
2013-03-17 20:01:00,35.3,26.1,30.20,NNW,335,0.0,4.0,69,0.00,,,0.00,Wunderground v.1.15,2013-03-18 00:01:00,
2013-03-17 20:07:00,35.2,26.0,30.19,NNW,334,0.0,4.0,69,0.00,,,0.00,Wunderground v.1.15,2013-03-18 00:07:00,
2013-03-17 20:13:00,35.1,25.9,30.19,NNW,335,0.0,4.0,69,0.00,,,0.00,Wunderground v.1.15,2013-03-18 00:13:00,
2013-03-17 20:19:00,35.0,26.2,30.19,NNW,334,1.0,4.0,70,0.00,,,0.00,Wunderground v.1.15,2013-03-18 00:19:00,
2013-03-17 20:24:00,34.9,26.1,30.20,NNW,339,0.0,4.0,70,0.00,,,0.00,Wunderground v.1.15,2013-03-18 00:24:00,
2013-03-17 20:29:00,34.8,26.4,30.19,South,171,0.0,4.0,71,0.00,,,0.00,Wunderground v.1.15,2013-03-18 00:29:00,
2013-03-17 20:35:00,34.7,25.9,30.20,North,355,1.0,4.0,70,0.00,,,0.00,Wunderground v.1.15,2013-03-18 00:35:00,
2013-03-17 20:40:00,34.7,25.9,30.20,NNW,331,1.0,4.0,70,0.00,,,0.00,Wunderground v.1.15,2013-03-18 00:40:00,
2013-03-17 20:45:00,34.6,26.2,30.20,NNW,331,1.0,4.0,71,0.00,,,0.00,Wunderground v.1.15,2013-03-18 00:45:00,
2013-03-17 20:50:00,34.5,26.1,30.19,WNW,303,0.0,4.0,71,0.00,,,0.00,Wunderground v.1.15,2013-03-18 00:50:00,
2013-03-17 20:56:00,34.4,25.6,30.19,East,90,1.0,4.0,70,0.00,,,0.00,Wunderground v.1.15,2013-03-18 00:56:00,
2013-03-17 21:02:00,34.4,26.0,30.20,SW,222,1.0,5.0,71,0.00,,,0.00,Wunderground v.1.15,2013-03-18 01:02:00,
2013-03-17 21:07:00,34.4,26.0,30.20,WNW,290,1.0,5.0,71,0.00,,,0.00,Wunderground v.1.15,2013-03-18 01:07:00,
2013-03-17 21:13:00,34.4,26.0,30.20,NW,315,1.0,5.0,71,0.00,,,0.00,Wunderground v.1.15,2013-03-18 01:13:00,
2013-03-17 21:19:00,34.4,26.0,30.20,SE,129,1.0,5.0,71,0.00,,,0.00,Wunderground v.1.15,2013-03-18 01:19:00,
2013-03-17 21:24:00,34.4,26.0,30.20,SW,233,1.0,5.0,71,0.00,,,0.00,Wunderground v.1.15,2013-03-18 01:24:00,
2013-03-17 21:30:00,34.4,26.0,30.20,South,180,1.0,5.0,71,0.00,,,0.00,Wunderground v.1.15,2013-03-18 01:30:00,
2013-03-17 21:35:00,34.4,26.3,30.20,WSW,252,1.0,5.0,72,0.00,,,0.00,Wunderground v.1.15,2013-03-18 01:35:00,
2013-03-17 21:40:00,34.4,26.0,30.20,NE,37,1.0,5.0,71,0.00,,,0.00,Wunderground v.1.15,2013-03-18 01:40:00,
2013-03-17 21:46:00,34.3,26.2,30.20,WNW,303,1.0,5.0,72,0.00,,,0.00,Wunderground v.1.15,2013-03-18 01:46:00,
2013-03-17 21:52:00,34.2,26.1,30.20,SSE,149,1.0,5.0,72,0.00,,,0.00,Wunderground v.1.15,2013-03-18 01:52:00,
2013-03-17 21:57:00,34.1,26.0,30.20,WSW,258,1.0,5.0,72,0.00,,,0.00,Wunderground v.1.15,2013-03-18 01:57:00,
2013-03-17 22:02:00,34.0,25.9,30.20,ESE,109,1.0,6.0,72,0.00,,,0.00,Wunderground v.1.15,2013-03-18 02:02:00,
2013-03-17 22:07:00,33.9,25.8,30.20,ESE,116,1.0,6.0,72,0.00,,,0.00,Wunderground v.1.15,2013-03-18 02:07:00,
2013-03-17 22:12:00,33.9,26.2,30.19,SSE,160,1.0,6.0,73,0.00,,,0.00,Wunderground v.1.15,2013-03-18 02:12:00,
2013-03-17 22:18:00,33.8,25.7,30.20,East,79,1.0,6.0,72,0.00,,,0.00,Wunderground v.1.15,2013-03-18 02:18:00,
2013-03-17 22:23:00,33.8,26.1,30.20,East,101,1.0,6.0,73,0.00,,,0.00,Wunderground v.1.15,2013-03-18 02:23:00,
2013-03-17 22:29:00,33.7,26.0,30.19,SSE,165,1.0,6.0,73,0.00,,,0.00,Wunderground v.1.15,2013-03-18 02:29:00,
2013-03-17 22:34:00,33.7,26.0,30.19,South,176,1.0,6.0,73,0.00,,,0.00,Wunderground v.1.15,2013-03-18 02:34:00,
2013-03-17 22:39:00,33.6,25.9,30.19,WNW,283,0.0,6.0,73,0.00,,,0.00,Wunderground v.1.15,2013-03-18 02:39:00,
2013-03-17 22:44:00,33.5,25.8,30.19,ENE,64,1.0,6.0,73,0.00,,,0.00,Wunderground v.1.15,2013-03-18 02:44:00,
2013-03-17 22:50:00,33.5,26.1,30.18,ENE,64,0.0,6.0,74,0.00,,,0.00,Wunderground v.1.15,2013-03-18 02:50:00,
2013-03-17 22:56:00,33.5,26.1,30.18,SW,226,0.0,6.0,74,0.00,,,0.00,Wunderground v.1.15,2013-03-18 02:56:00,
2013-03-17 23:03:00,33.4,26.3,30.18,SSW,195,0.0,5.0,75,0.00,,,0.00,Wunderground v.1.15,2013-03-18 03:03:00,
2013-03-17 23:08:00,33.4,26.3,30.18,West,268,1.0,5.0,75,0.00,,,0.00,Wunderground v.1.15,2013-03-18 03:08:00,
2013-03-17 23:14:00,33.3,26.2,30.17,SSW,213,1.0,5.0,75,0.00,,,0.00,Wunderground v.1.15,2013-03-18 03:14:00,
2013-03-17 23:19:00,33.3,25.9,30.17,NW,310,1.0,1.0,74,0.00,,,0.00,Wunderground v.1.15,2013-03-18 03:19:00,
2013-03-17 23:25:00,33.3,25.9,30.17,SSE,157,1.0,5.0,74,0.00,,,0.00,Wunderground v.1.15,2013-03-18 03:25:00,
2013-03-17 23:30:00,33.2,25.8,30.17,NNE,26,1.0,5.0,74,0.00,,,0.00,Wunderground v.1.15,2013-03-18 03:30:00,
2013-03-17 23:36:00,33.2,25.8,30.17,NW,325,2.0,5.0,74,0.00,,,0.00,Wunderground v.1.15,2013-03-18 03:36:00,
2013-03-17 23:41:00,33.2,26.1,30.17,SSW,206,2.0,5.0,75,0.00,,,0.00,Wunderground v.1.15,2013-03-18 03:41:00,
2013-03-17 23:46:00,33.2,26.1,30.17,South,176,2.0,5.0,75,0.00,,,0.00,Wunderground v.1.15,2013-03-18 03:46:00,
2013-03-17 23:51:00,33.2,26.1,30.17,NNW,348,1.0,5.0,75,0.00,,,0.00,Wunderground v.1.15,2013-03-18 03:51:00,
2013-03-17 23:57:00,33.1,26.0,30.17,SSW,199,2.0,6.0,75,0.00,,,0.00,Wunderground v.1.15,2013-03-18 03:57:00,